createdAt,value
2019-02-28T00:00:41.425Z,67.03
2019-02-28T00:05:45.117Z,114.20
2019-02-28T00:08:17.363Z,125.67
2019-02-28T00:10:48.798Z,144.75
2019-02-28T00:13:21.687Z,173.15
2019-02-28T00:15:53.180Z,227.13
2019-02-28T00:18:25.774Z,229.47
2019-02-28T00:20:57.253Z,197.62
2019-02-28T00:23:28.711Z,200.80
2019-02-28T00:25:59.959Z,164.37
2019-02-28T00:28:31.396Z,140.92
2019-02-28T00:31:03.907Z,110.88
2019-02-28T00:33:35.294Z,122.95
2019-02-28T00:36:06.680Z,96.90
2019-02-28T00:38:38.127Z,85.77
2019-02-28T00:41:10.263Z,92.78
2019-02-28T00:46:12.007Z,89.67
2019-02-28T00:48:43.332Z,97.67
2019-02-28T00:51:14.771Z,69.35
2019-02-28T00:53:46.148Z,85.42
2019-02-28T00:56:18.305Z,96.10
2019-02-28T00:58:49.792Z,100.53
2019-02-28T01:01:21.091Z,145.85
2019-02-28T01:03:53.453Z,134.75
2019-02-28T01:06:24.843Z,130.80
2019-02-28T01:08:56.784Z,126.95
2019-02-28T01:11:28.064Z,119.62
2019-02-28T01:14:01.571Z,117.15
2019-02-28T01:16:32.449Z,98.05
2019-02-28T01:19:08.736Z,91.17
2019-02-28T01:21:36.982Z,84.13
2019-02-28T01:24:08.374Z,73.02
2019-02-28T01:26:39.766Z,109.07
2019-02-28T01:29:11.103Z,60.23
2019-02-28T01:31:43.362Z,96.70
2019-02-28T01:34:15.154Z,99.85
2019-02-28T01:36:48.669Z,117.57
2019-02-28T01:39:19.634Z,111.47
2019-02-28T01:41:50.966Z,110.22
2019-02-28T01:44:22.394Z,86.15
2019-02-28T01:46:53.720Z,105.15
2019-02-28T01:49:25.940Z,92.53
2019-02-28T01:51:58.347Z,96.75
2019-02-28T01:54:29.828Z,79.62
2019-02-28T01:57:01.220Z,100.18
2019-02-28T01:59:32.563Z,116.47
2019-02-28T02:02:06.774Z,126.92
2019-02-28T02:04:37.006Z,140.57
2019-02-28T02:07:08.423Z,150.40
2019-02-28T02:09:42.739Z,137.28
2019-02-28T02:12:13.066Z,150.03
2019-02-28T02:14:45.649Z,91.05
2019-02-28T02:17:17.426Z,98.65
2019-02-28T02:19:49.411Z,91.22
2019-02-28T02:24:51.460Z,82.33
2019-02-28T02:27:22.790Z,88.97
2019-02-28T02:29:54.034Z,78.78
2019-02-28T02:32:25.287Z,83.25
2019-02-28T02:34:56.625Z,71.12
2019-02-28T02:37:30.301Z,89.05
2019-02-28T02:40:01.076Z,93.78
2019-02-28T02:42:32.901Z,86.57
2019-02-28T02:45:06.466Z,71.25
2019-02-28T02:47:38.285Z,84.30
2019-02-28T02:50:12.831Z,70.50
2019-02-28T02:52:44.195Z,63.73
2019-02-28T02:55:15.695Z,61.77
2019-02-28T02:57:50.923Z,51.55
2019-02-28T03:00:20.330Z,49.38
2019-02-28T03:02:51.668Z,46.18
2019-02-28T03:05:23.133Z,45.15
2019-02-28T03:07:59.453Z,45.08
2019-02-28T03:10:27.877Z,53.23
2019-02-28T03:12:59.348Z,47.73
2019-02-28T03:15:30.768Z,49.58
2019-02-28T03:18:02.226Z,48.20
2019-02-28T03:20:33.693Z,48.87
2019-02-28T03:23:06.255Z,50.40
2019-02-28T03:25:37.704Z,36.45
2019-02-28T03:28:09.190Z,39.42
2019-02-28T03:30:40.740Z,45.85
2019-02-28T03:33:24.173Z,29.12
2019-02-28T03:35:45.097Z,45.90
2019-02-28T03:38:16.493Z,32.00
2019-02-28T03:40:47.871Z,34.80
2019-02-28T03:43:19.409Z,45.03
2019-02-28T03:45:50.850Z,50.98
2019-02-28T03:48:22.317Z,38.08
2019-02-28T03:50:55.314Z,48.87
2019-02-28T03:53:26.723Z,48.17
2019-02-28T03:55:58.115Z,40.20
2019-02-28T03:58:29.478Z,39.13
2019-02-28T04:01:00.881Z,50.15
2019-02-28T04:03:33.683Z,50.73
2019-02-28T04:06:05.291Z,62.53
2019-02-28T04:08:36.764Z,49.77
2019-02-28T04:11:08.022Z,74.45
2019-02-28T04:13:39.476Z,67.03
2019-02-28T04:16:10.859Z,84.83
2019-02-28T04:18:46.222Z,97.15
2019-02-28T04:21:15.478Z,94.87
2019-02-28T04:23:46.785Z,67.25
2019-02-28T04:26:18.141Z,59.33
2019-02-28T04:28:53.478Z,51.73
2019-02-28T04:31:22.695Z,47.73
2019-02-28T04:33:54.136Z,53.63
2019-02-28T04:36:25.577Z,52.20
2019-02-28T04:38:57.021Z,54.20
2019-02-28T04:41:32.498Z,47.65
2019-02-28T04:44:01.432Z,45.28
2019-02-28T04:46:32.950Z,52.78
2019-02-28T04:49:04.368Z,26.73
2019-02-28T04:51:37.093Z,35.10
2019-02-28T04:54:08.808Z,32.38
2019-02-28T04:56:42.333Z,33.83
2019-02-28T04:59:13.333Z,38.92
2019-02-28T05:01:46.183Z,31.35
2019-02-28T05:04:17.892Z,36.00
2019-02-28T05:06:52.144Z,36.83
2019-02-28T05:09:22.322Z,34.98
2019-02-28T05:11:53.759Z,33.10
2019-02-28T05:14:25.141Z,25.52
2019-02-28T05:16:56.528Z,37.83
2019-02-28T05:19:27.942Z,38.42
2019-02-28T05:21:59.225Z,43.98
2019-02-28T05:24:30.608Z,45.38
2019-02-28T05:27:02.263Z,53.02
2019-02-28T05:29:33.499Z,45.20
2019-02-28T05:32:04.852Z,48.17
2019-02-28T05:34:36.176Z,54.38
2019-02-28T05:37:12.271Z,43.52
2019-02-28T05:39:40.644Z,49.05
2019-02-28T05:42:12.121Z,59.00
2019-02-28T05:44:43.542Z,63.17
2019-02-28T05:47:14.992Z,67.85
2019-02-28T05:49:46.339Z,63.08
2019-02-28T05:52:17.716Z,45.52
2019-02-28T05:54:50.378Z,59.08
2019-02-28T05:57:22.331Z,54.10
2019-02-28T05:59:53.773Z,48.52
2019-02-28T06:02:25.727Z,42.58
2019-02-28T06:07:28.748Z,44.75
2019-02-28T06:10:00.639Z,36.98
2019-02-28T06:12:32.172Z,42.48
2019-02-28T06:15:05.620Z,40.60
2019-02-28T06:17:36.978Z,40.85
2019-02-28T06:20:09.699Z,39.85
2019-02-28T06:22:41.034Z,32.73
2019-02-28T06:25:22.263Z,39.73
2019-02-28T06:27:50.286Z,32.23
2019-02-28T06:30:19.860Z,36.68
2019-02-28T06:32:51.154Z,35.95
2019-02-28T06:35:22.472Z,40.73
2019-02-28T06:37:53.794Z,28.57
2019-02-28T06:40:25.165Z,56.48
2019-02-28T06:42:56.510Z,34.92
2019-02-28T06:45:27.986Z,42.65
2019-02-28T06:47:59.586Z,40.08
2019-02-28T06:50:30.931Z,36.70
2019-02-28T06:53:02.317Z,40.20
2019-02-28T06:55:33.652Z,35.55
2019-02-28T06:58:05.134Z,36.77
2019-02-28T07:00:36.594Z,38.78
2019-02-28T07:03:08.050Z,32.10
2019-02-28T07:05:39.369Z,27.90
2019-02-28T07:08:10.818Z,42.93
2019-02-28T07:10:44.928Z,43.42
2019-02-28T07:13:15.338Z,60.67
2019-02-28T07:15:46.679Z,81.97
2019-02-28T07:18:18.871Z,57.08
2019-02-28T07:20:51.468Z,54.18
2019-02-28T07:23:22.779Z,44.25
2019-02-28T07:25:54.251Z,32.05
2019-02-28T07:28:25.695Z,37.15
2019-02-28T07:30:57.018Z,34.80
2019-02-28T07:33:28.385Z,45.05
2019-02-28T07:35:59.892Z,38.60
2019-02-28T07:38:31.316Z,48.68
2019-02-28T07:41:02.735Z,48.25
2019-02-28T07:43:34.312Z,38.28
2019-02-28T07:46:07.658Z,43.15
2019-02-28T07:48:38.854Z,38.48
2019-02-28T07:51:10.180Z,32.13
2019-02-28T07:53:42.081Z,34.03
2019-02-28T07:58:43.961Z,35.10
2019-02-28T08:01:15.351Z,30.62
2019-02-28T08:03:46.701Z,31.17
2019-02-28T08:06:18.076Z,51.23
2019-02-28T08:08:49.421Z,37.33
2019-02-28T08:11:21.000Z,33.33
2019-02-28T08:13:52.328Z,38.25
2019-02-28T08:16:23.704Z,39.38
2019-02-28T08:18:55.105Z,43.10
2019-02-28T08:21:26.565Z,40.38
2019-02-28T08:23:58.009Z,41.73
2019-02-28T08:26:29.472Z,40.75
2019-02-28T08:29:00.948Z,39.45
2019-02-28T08:31:33.107Z,55.92
2019-02-28T08:34:04.581Z,50.17
2019-02-28T08:36:35.891Z,54.13
2019-02-28T08:39:10.059Z,50.83
2019-02-28T08:41:42.356Z,50.78
2019-02-28T08:44:13.682Z,49.50
2019-02-28T08:46:46.583Z,48.87
2019-02-28T08:49:18.218Z,46.37
2019-02-28T08:51:49.601Z,45.65
2019-02-28T08:54:26.251Z,38.10
2019-02-28T08:56:55.164Z,45.85
2019-02-28T08:59:26.575Z,23.90
2019-02-28T09:01:58.905Z,23.00
2019-02-28T09:04:30.275Z,19.23
2019-02-28T09:07:01.605Z,17.87
2019-02-28T09:09:34.475Z,17.60
2019-02-28T09:12:06.944Z,19.32
2019-02-28T09:14:38.299Z,17.40
2019-02-28T09:17:09.635Z,14.73
2019-02-28T09:19:41.090Z,17.73
2019-02-28T09:22:13.559Z,15.95
2019-02-28T09:24:46.832Z,17.37
2019-02-28T09:27:18.039Z,13.35
2019-02-28T09:29:54.516Z,10.28
2019-02-28T09:32:22.344Z,15.60
2019-02-28T09:34:53.570Z,14.93
2019-02-28T09:37:29.656Z,16.42
2019-02-28T09:39:57.977Z,13.95
2019-02-28T09:42:29.252Z,24.90
2019-02-28T09:45:06.778Z,18.57
2019-02-28T09:47:33.591Z,20.95
2019-02-28T09:50:07.823Z,22.32
2019-02-28T09:52:41.672Z,13.15
2019-02-28T09:55:12.805Z,21.35
2019-02-28T09:57:44.510Z,19.05
2019-02-28T10:00:21.254Z,17.42
2019-02-28T10:02:53.134Z,17.82
2019-02-28T10:05:24.814Z,15.65
2019-02-28T10:08:01.489Z,11.05
2019-02-28T10:10:33.056Z,15.10
2019-02-28T10:13:04.303Z,11.48
2019-02-28T10:15:38.698Z,12.80
2019-02-28T10:18:09.847Z,12.90
2019-02-28T10:20:41.603Z,21.62
2019-02-28T10:23:12.857Z,14.98
2019-02-28T10:25:44.080Z,12.00
2019-02-28T10:28:15.457Z,20.32
2019-02-28T10:30:47.211Z,13.18
2019-02-28T10:33:19.971Z,15.95
2019-02-28T10:35:51.165Z,13.50
2019-02-28T10:38:22.439Z,14.93
2019-02-28T10:40:53.803Z,13.85
2019-02-28T10:43:25.140Z,18.32
2019-02-28T10:45:56.471Z,19.23
2019-02-28T10:48:29.086Z,22.37
2019-02-28T10:51:12.666Z,16.37
2019-02-28T10:53:36.323Z,30.77
2019-02-28T10:56:08.235Z,28.05
2019-02-28T10:58:39.587Z,19.17
2019-02-28T11:01:12.038Z,23.90
2019-02-28T11:03:43.405Z,20.35
2019-02-28T11:06:14.868Z,27.93
2019-02-28T11:08:47.485Z,22.35
2019-02-28T11:11:19.393Z,25.43
2019-02-28T11:13:50.887Z,29.55
2019-02-28T11:16:23.689Z,27.07
2019-02-28T11:18:55.688Z,30.90
2019-02-28T11:21:29.895Z,30.15
2019-02-28T11:24:00.133Z,29.65
2019-02-28T11:26:31.492Z,27.62
2019-02-28T11:29:03.823Z,28.42
2019-02-28T11:31:35.454Z,34.90
2019-02-28T11:34:06.957Z,28.38
2019-02-28T11:36:38.349Z,32.30
2019-02-28T11:39:10.473Z,25.25
2019-02-28T11:41:41.912Z,26.07
2019-02-28T11:44:13.377Z,25.37
2019-02-28T11:46:44.798Z,27.20
2019-02-28T11:49:16.177Z,29.60
2019-02-28T11:51:49.373Z,30.02
2019-02-28T11:54:20.643Z,31.85
2019-02-28T11:56:52.011Z,25.35
2019-02-28T11:59:24.511Z,24.10
2019-02-28T12:01:56.785Z,28.87
2019-02-28T12:04:28.253Z,25.48
2019-02-28T12:07:00.993Z,24.45
2019-02-28T12:09:32.613Z,30.65
2019-02-28T12:12:04.028Z,26.93
2019-02-28T12:14:35.395Z,33.23
2019-02-28T12:17:06.722Z,28.75
2019-02-28T12:19:38.038Z,26.87
2019-02-28T12:22:12.075Z,30.62
2019-02-28T12:24:42.622Z,28.00
2019-02-28T12:27:13.881Z,23.57
2019-02-28T12:29:45.626Z,29.52
2019-02-28T12:32:18.405Z,28.47
2019-02-28T12:34:49.831Z,23.70
2019-02-28T12:37:22.127Z,35.92
2019-02-28T12:39:54.320Z,32.60
2019-02-28T12:42:25.737Z,32.38
2019-02-28T12:44:57.199Z,31.73
2019-02-28T12:47:30.513Z,27.55
2019-02-28T12:50:01.832Z,28.07
2019-02-28T12:52:33.265Z,37.63
2019-02-28T12:55:08.779Z,31.48
2019-02-28T12:57:40.179Z,36.65
2019-02-28T13:00:19.825Z,35.30
2019-02-28T13:02:49.779Z,34.83
2019-02-28T13:05:21.287Z,31.05
2019-02-28T13:07:52.645Z,23.50
2019-02-28T13:10:27.953Z,35.28
2019-02-28T13:13:05.802Z,27.87
2019-02-28T13:15:30.180Z,31.33
2019-02-28T13:18:07.113Z,36.42
2019-02-28T13:20:36.690Z,34.73
2019-02-28T13:23:08.127Z,30.60
2019-02-28T13:25:39.877Z,30.90
2019-02-28T13:28:11.195Z,28.15
2019-02-28T13:30:49.013Z,40.05
2019-02-28T13:33:16.209Z,30.43
2019-02-28T13:38:19.825Z,32.05
2019-02-28T13:40:51.430Z,34.20
2019-02-28T13:43:22.959Z,37.28
2019-02-28T13:45:56.147Z,41.88
2019-02-28T13:48:33.154Z,48.90
2019-02-28T13:51:02.569Z,56.28
2019-02-28T13:53:33.986Z,46.77
2019-02-28T13:56:05.320Z,43.98
2019-02-28T13:58:36.712Z,43.98
2019-02-28T14:01:08.348Z,44.65
2019-02-28T14:03:42.343Z,48.23
2019-02-28T14:06:18.947Z,38.67
2019-02-28T14:08:47.751Z,39.20
2019-02-28T14:11:19.023Z,43.92
2019-02-28T14:13:50.307Z,40.48
2019-02-28T14:16:26.519Z,39.85
2019-02-28T14:18:54.833Z,36.03
2019-02-28T14:21:26.296Z,36.00
2019-02-28T14:23:59.097Z,43.42
2019-02-28T14:26:31.173Z,56.40
2019-02-28T14:31:33.865Z,36.08
2019-02-28T14:34:05.701Z,63.50
2019-02-28T14:36:37.143Z,54.77
2019-02-28T14:39:11.018Z,67.82
2019-02-28T14:41:42.694Z,45.28
2019-02-28T14:44:14.175Z,43.98
2019-02-28T14:46:46.504Z,46.25
2019-02-28T14:49:17.990Z,44.53
2019-02-28T14:51:49.438Z,54.63
2019-02-28T14:54:21.869Z,51.77
2019-02-28T14:56:54.054Z,42.55
2019-02-28T14:59:28.565Z,57.05
2019-02-28T15:01:58.610Z,49.35
2019-02-28T15:04:30.090Z,52.83
2019-02-28T15:07:03.146Z,51.18
2019-02-28T15:09:34.893Z,55.05
2019-02-28T15:12:06.361Z,56.73
2019-02-28T15:14:40.516Z,51.60
2019-02-28T15:17:10.812Z,55.03
2019-02-28T15:19:42.136Z,53.50
2019-02-28T15:22:14.236Z,54.95
2019-02-28T15:24:46.784Z,62.03
2019-02-28T15:27:18.248Z,57.00
2019-02-28T15:29:51.014Z,60.40
2019-02-28T15:32:23.482Z,46.28
2019-02-28T15:34:55.256Z,60.65
2019-02-28T15:37:26.900Z,92.00
2019-02-28T15:39:58.146Z,185.07
2019-02-28T15:42:29.612Z,378.52
2019-02-28T15:45:03.955Z,375.05
2019-02-28T15:47:34.499Z,621.00
2019-02-28T15:50:09.162Z,498.15
2019-02-28T15:52:40.537Z,706.15
2019-02-28T15:55:16.683Z,287.48
2019-02-28T15:57:48.488Z,136.35
2019-02-28T16:00:31.479Z,122.85
2019-02-28T16:03:02.715Z,74.35
2019-02-28T16:05:34.148Z,79.03
2019-02-28T16:08:10.393Z,76.02
2019-02-28T16:10:38.686Z,88.75
2019-02-28T16:13:10.370Z,81.85
2019-02-28T16:15:43.214Z,73.85
2019-02-28T16:18:14.884Z,71.70
2019-02-28T16:20:46.338Z,69.55
2019-02-28T16:23:18.652Z,71.25
2019-02-28T16:25:50.263Z,66.42
2019-02-28T16:28:21.828Z,68.37
2019-02-28T16:30:53.183Z,89.97
2019-02-28T16:33:25.552Z,69.53
2019-02-28T16:35:56.965Z,78.30
2019-02-28T16:38:29.811Z,65.15
2019-02-28T16:41:01.553Z,79.50
2019-02-28T16:43:33.999Z,74.90
2019-02-28T16:46:05.573Z,73.33
2019-02-28T16:48:37.247Z,79.32
2019-02-28T16:51:10.352Z,75.30
2019-02-28T16:53:41.655Z,94.10
2019-02-28T16:56:13.031Z,66.53
2019-02-28T16:58:44.452Z,93.25
2019-02-28T17:01:17.463Z,112.65
2019-02-28T17:03:49.446Z,81.45
2019-02-28T17:06:21.939Z,88.55
2019-02-28T17:08:55.352Z,76.33
2019-02-28T17:11:26.690Z,77.55
2019-02-28T17:14:02.599Z,59.65
2019-02-28T17:16:44.741Z,60.25
2019-02-28T17:21:48.720Z,53.63
2019-02-28T17:24:19.732Z,56.10
2019-02-28T17:26:52.728Z,56.45
2019-02-28T17:29:26.118Z,46.60
2019-02-28T17:31:57.757Z,52.40
2019-02-28T17:34:29.221Z,57.83
2019-02-28T17:37:00.563Z,46.77
2019-02-28T17:39:33.361Z,52.27
2019-02-28T17:42:08.588Z,49.00
2019-02-28T17:44:43.362Z,52.10
2019-02-28T17:47:20.666Z,46.90
2019-02-28T17:50:05.848Z,44.05
2019-02-28T17:53:07.079Z,46.70
2019-02-28T17:55:48.321Z,44.05
2019-02-28T17:58:32.630Z,44.38
2019-02-28T18:01:28.375Z,47.78
2019-02-28T18:04:01.370Z,44.58
2019-02-28T18:07:06.100Z,43.50
2019-02-28T18:09:45.003Z,48.35
2019-02-28T18:12:52.842Z,47.67
2019-02-28T18:15:30.449Z,48.42
2019-02-28T18:18:10.888Z,45.33
2019-02-28T18:20:48.072Z,46.80
2019-02-28T18:23:37.143Z,39.40
2019-02-28T18:26:20.606Z,51.65
2019-02-28T18:28:58.816Z,43.00
2019-02-28T18:31:30.441Z,45.78
2019-02-28T18:34:01.886Z,49.53
2019-02-28T18:36:33.325Z,43.00
2019-02-28T18:39:08.078Z,44.05
2019-02-28T18:41:42.243Z,44.55
2019-02-28T18:44:13.714Z,44.27
2019-02-28T18:46:45.267Z,48.02
2019-02-28T18:49:16.676Z,39.83
2019-02-28T18:51:49.284Z,49.03
2019-02-28T18:54:21.845Z,40.83
2019-02-28T18:56:53.164Z,45.15
2019-02-28T18:59:24.477Z,44.48
2019-02-28T19:01:55.897Z,32.73
2019-02-28T19:04:27.362Z,51.13
2019-02-28T19:06:58.804Z,46.40
2019-02-28T19:09:30.141Z,41.65
2019-02-28T19:12:01.607Z,44.58
2019-02-28T19:14:33.275Z,46.15
2019-02-28T19:17:04.654Z,47.23
2019-02-28T19:19:36.072Z,46.75
2019-02-28T19:22:07.520Z,45.48
2019-02-28T19:24:40.296Z,43.58
2019-02-28T19:27:13.432Z,49.30
2019-02-28T19:29:46.111Z,50.23
2019-02-28T19:32:17.467Z,45.10
2019-02-28T19:34:48.837Z,43.85
2019-02-28T19:37:20.413Z,46.42
2019-02-28T19:39:51.849Z,46.02
2019-02-28T19:42:25.390Z,46.63
2019-02-28T19:44:56.808Z,39.88
2019-02-28T19:47:28.349Z,43.85
2019-02-28T19:49:59.866Z,47.13
2019-02-28T19:52:31.222Z,48.17
2019-02-28T19:55:02.746Z,47.13
2019-02-28T19:57:34.135Z,44.05
2019-02-28T20:00:08.753Z,48.65
2019-02-28T20:02:40.342Z,43.30
2019-02-28T20:05:12.708Z,42.27
2019-02-28T20:07:44.079Z,44.25
2019-02-28T20:10:21.710Z,49.73
2019-02-28T20:12:53.290Z,61.60
2019-02-28T20:15:27.438Z,52.88
2019-02-28T20:18:00.790Z,66.75
2019-02-28T20:20:34.581Z,80.47
2019-02-28T20:23:06.234Z,69.65
2019-02-28T20:25:39.127Z,51.90
2019-02-28T20:28:11.079Z,51.18
2019-02-28T20:30:42.635Z,56.40
2019-02-28T20:33:15.980Z,56.75
2019-02-28T20:35:47.613Z,54.33
2019-02-28T20:38:18.930Z,66.55
2019-02-28T20:40:50.320Z,52.10
2019-02-28T20:43:22.107Z,55.43
2019-02-28T20:45:53.506Z,58.50
2019-02-28T20:48:24.871Z,62.50
2019-02-28T20:50:56.108Z,60.08
2019-02-28T20:53:27.446Z,49.13
2019-02-28T20:55:58.817Z,60.17
2019-02-28T21:01:03.429Z,58.35
2019-02-28T21:03:38.962Z,59.35
2019-02-28T21:06:13.591Z,56.92
2019-02-28T21:08:48.913Z,61.02
2019-02-28T21:11:22.031Z,56.95
2019-02-28T21:13:57.528Z,59.23
2019-02-28T21:16:32.450Z,54.13
2019-02-28T21:19:07.918Z,55.67
2019-02-28T21:21:42.576Z,56.42
2019-02-28T21:24:15.797Z,55.73
2019-02-28T21:26:47.124Z,56.10
2019-02-28T21:29:18.498Z,53.42
2019-02-28T21:31:50.238Z,62.33
2019-02-28T21:34:21.565Z,60.75
2019-02-28T21:36:52.991Z,64.75
2019-02-28T21:39:24.463Z,59.30
2019-02-28T21:41:55.941Z,63.05
2019-02-28T21:44:27.502Z,60.78
2019-02-28T21:46:58.984Z,74.45
2019-02-28T21:49:31.458Z,70.25
2019-02-28T21:52:02.769Z,82.82
2019-02-28T21:54:34.063Z,72.20
2019-02-28T21:57:05.551Z,71.87
2019-02-28T21:59:38.299Z,45.67
2019-02-28T22:02:14.563Z,59.27
2019-02-28T22:04:45.959Z,41.18
2019-02-28T22:07:17.300Z,45.45
2019-02-28T22:09:48.779Z,58.80
2019-02-28T22:12:20.138Z,51.02
2019-02-28T22:14:52.874Z,54.40
2019-02-28T22:17:24.211Z,48.17
2019-02-28T22:19:55.635Z,44.65
2019-02-28T22:22:27.034Z,47.08
2019-02-28T22:24:58.442Z,49.55
2019-02-28T22:27:29.776Z,42.83
2019-02-28T22:30:02.694Z,51.13
2019-02-28T22:32:37.212Z,49.85
2019-02-28T22:35:10.158Z,44.23
2019-02-28T22:37:41.511Z,47.60
2019-02-28T22:40:12.878Z,48.08
2019-02-28T22:42:44.279Z,47.23
2019-02-28T22:45:15.662Z,47.78
2019-02-28T22:47:47.059Z,48.75
2019-02-28T22:50:18.537Z,43.85
2019-02-28T22:52:49.856Z,47.33
2019-02-28T22:55:21.171Z,43.65
2019-02-28T22:57:52.576Z,46.15
2019-02-28T23:00:43.716Z,49.98
2019-02-28T23:03:15.655Z,42.83
2019-02-28T23:05:46.985Z,47.90
2019-02-28T23:08:18.347Z,34.35
2019-02-28T23:10:49.722Z,36.28
2019-02-28T23:13:21.074Z,43.55
2019-02-28T23:15:52.423Z,45.52
2019-02-28T23:18:23.745Z,38.53
2019-02-28T23:20:55.188Z,41.80
2019-02-28T23:23:26.531Z,49.18
2019-02-28T23:26:09.122Z,46.88
2019-02-28T23:28:46.515Z,48.83
2019-02-28T23:31:39.977Z,50.98
2019-02-28T23:34:20.419Z,48.55
2019-02-28T23:36:51.805Z,60.67
2019-02-28T23:39:24.722Z,59.15
2019-02-28T23:41:56.067Z,64.70
2019-02-28T23:44:27.532Z,66.80
2019-02-28T23:46:59.210Z,62.85
2019-02-28T23:49:30.537Z,65.67
2019-02-28T23:52:01.918Z,66.92
2019-02-28T23:54:33.693Z,66.15
2019-02-28T23:57:05.072Z,66.42
2019-02-28T23:59:36.407Z,65.75
